Αναφορές METAR Αεροδρομίων

 

LGTS - THESSALONIKI - GREECE
Ενημερώθηκε: 21/04/2021 05:20
Αίθριος
Αίθριος
 Ανεμος από ΑΝΑ
Ανεμος: ΑΝΑ 7 km/h
Θερμοκρασία: 6°C
Wind Chill: 4°C
Σημείο Δρόσου: 5°C
Υγρασία: 93%
Βαρόμετρο: 1017 hPa
Περίληψη: Αίθριος
Visibility: greater than 10 km
2021/04/21 02:20 LGTS 210220Z 11004KT CAVOK 06/05 Q1017 NOSIG
LGLR - LARTISA - GREECE
Ενημερώθηκε: 21/04/2021 05:50
Αραιές Νεφώσεις
Αραιές Νεφώσεις
 Ανεμος από calm
Ανεμος: Απνοια
Θερμοκρασία: 2°C
Σημείο Δρόσου: 0°C
Υγρασία: 87%
Βαρόμετρο: 1017 hPa
Clouds: Αραιές Νεφώσεις
Visibility: 10 km
Cloud details: Αραιές Νεφώσεις 914 m
2021/04/21 02:50 LGLR 210250Z 00000KT 9999 FEW030 02/00 Q1017 BLU
 
LGKZ - KOZANI - GREECE
Ενημερώθηκε: 21/04/2021 05:50

 Ανεμος από varies
Ανεμος: varies 2 km/h
Θερμοκρασία: 1°C
Σημείο Δρόσου: -2°C
Υγρασία: 81%
Βαρόμετρο: 1018 hPa
2021/04/21 02:50 LGKZ 210250Z AUTO VRB01KT //// // ////// 01/M02 Q1018 RE//
LGKV - KAVALA - GREECE
Ενημερώθηκε: 20/04/2021 21:50
NOT Current
Αραιές Νεφώσεις
Αραιές Νεφώσεις
 Ανεμος από ΒΒΑ
Ανεμος: ΒΒΑ 9 km/h
Θερμοκρασία: 11°C
Σημείο Δρόσου: 7°C
Υγρασία: 77%
Βαρόμετρο: 1014 hPa
Clouds: Αραιές Νεφώσεις
Visibility: 10 km
Cloud details: Αραιές Νεφώσεις 762 m
2021/04/20 18:50 LGKV 201850Z 03005KT 9999 FEW025 11/07 Q1014
 
LGIO - IOANNINA - GREECE
Ενημερώθηκε: 21/04/2021 05:50

 Ανεμος από calm
Ανεμος: Απνοια
Θερμοκρασία: 2°C
Σημείο Δρόσου: 2°C
Υγρασία: 100%
Βαρόμετρο: 1019 hPa
2021/04/21 02:50 LGIO 210250Z AUTO 00000KT //// // ////// 02/02 Q1019 RE//
LGBL - BOLOS - GREECE
Ενημερώθηκε: 21/04/2021 05:50
Αραιές Νεφώσεις
Αραιές Νεφώσεις
 Ανεμος από ΔΒΔ
Ανεμος: ΔΒΔ 7 km/h
Θερμοκρασία: 8°C
Wind Chill: 7°C
Σημείο Δρόσου: 2°C
Υγρασία: 66%
Βαρόμετρο: 1017 hPa
Clouds: Αραιές Νεφώσεις
Visibility: 10 km
Cloud details: Αραιές Νεφώσεις 1067 m
2021/04/21 02:50 LGBL 210250Z 30004KT 9999 FEW035 08/02 Q1017
 
LGMT - MITILINI - GREECE
Ενημερώθηκε: 21/04/2021 05:50
Αίθριος
Αίθριος
 Ανεμος από varies
Ανεμος: varies 4 km/h
Θερμοκρασία: 11°C
Σημείο Δρόσου: 8°C
Υγρασία: 82%
Βαρόμετρο: 1017 hPa
Περίληψη: Αίθριος
Visibility: greater than 10 km
2021/04/21 02:50 LGMT 210250Z VRB02KT CAVOK 11/08 Q1017
LGAV - ATHENS - GREECE
Ενημερώθηκε: 21/04/2021 05:50
Αραιές Νεφώσεις
Αραιές Νεφώσεις
 Ανεμος από varies
Ανεμος: varies 2 km/h
Θερμοκρασία: 11°C
Σημείο Δρόσου: 4°C
Υγρασία: 62%
Βαρόμετρο: 1017 hPa
Clouds: Αραιές Νεφώσεις
Visibility: 10 km
Cloud details: Αραιές Νεφώσεις 914 m
2021/04/21 02:50 LGAV 210250Z VRB01KT 9999 FEW030 11/04 Q1017 NOSIG
 
LGRP - RODOS - GREECE
Ενημερώθηκε: 21/04/2021 05:50
Αραιές Νεφώσεις
Αραιές Νεφώσεις
 Ανεμος από Δ
Ανεμος: Δ 15 km/h
Θερμοκρασία: 15°C
Σημείο Δρόσου: 9°C
Υγρασία: 68%
Βαρόμετρο: 1015 hPa
Clouds: Αραιές Νεφώσεις
Visibility: 10 km
Cloud details: Αραιές Νεφώσεις 457 m
2021/04/21 02:50 LGRP 210250Z 26008KT 9999 FEW015 15/09 Q1015 NOSIG
LGIR - HRAKLIO/KRITI - GREECE
Ενημερώθηκε: 21/04/2021 05:50
Αραιές Νεφώσεις
Αραιές Νεφώσεις
 Ανεμος από Ν
Ανεμος: Ν 9 km/h
Θερμοκρασία: 11°C
Σημείο Δρόσου: 8°C
Υγρασία: 82%
Βαρόμετρο: 1018 hPa
Clouds: Αραιές Νεφώσεις
Visibility: 10 km
Cloud details: Αραιές Νεφώσεις 610 m
2021/04/21 02:50 LGIR 210250Z 17005KT 9999 FEW020 11/08 Q1018 NOSIG
 
LGMK - MIKONOS - GREECE
Ενημερώθηκε: 20/04/2021 20:50
NOT Current
Αραιές Νεφώσεις
Αραιές Νεφώσεις
 Ανεμος από varies
Ανεμος: varies 6 km/h
Θερμοκρασία: 16°C
Σημείο Δρόσου: 8°C
Υγρασία: 59%
Βαρόμετρο: 1015 hPa
Clouds: Αραιές Νεφώσεις
Visibility: 10 km
Cloud details: Αραιές Νεφώσεις 1067 m
2021/04/20 17:50 LGMK 201750Z VRB03KT 9999 FEW035 16/08 Q1015
LGKR - KERKIRA - GREECE
Ενημερώθηκε: 21/04/2021 05:50
Μερικώς νεφελώδης
Μερικώς νεφελώδης
 Ανεμος από calm
Ανεμος: Απνοια
Θερμοκρασία: 7°C
Σημείο Δρόσου: 5°C
Υγρασία: 87%
Βαρόμετρο: 1018 hPa
Clouds: Μερικώς νεφελώδης
Visibility: 10 km
Cloud details: Μερικώς νεφελώδης 610 m
Μερικώς νεφελώδης 2438 m
2021/04/21 02:50 LGKR 210250Z 00000KT 9999 SCT020 SCT080 07/05 Q1018 NOSIG